Back to Top

Language: 

My Weather Underground Personal Weather Station Historical Data with Graphs...

Delerius Weather Station Historical Data
Daily Summary for April 2, 2017 Units:  Metric    English   Both
« Previous Day
Next Day »
Daily Weekly Monthly Yearly Custom
  High: Low: Average:
Temperature: 15.3 °C 5.9 °C 10.1 °C
Dew Point: 7.9 °C 3.9 °C 5.9 °C
Humidity: 92 % 51 % 77 %
Wind Speed: 11.3 km/h 0 km/h 4 km/h
Wind Gust: 22.5 km/h - -
Wind:- - West
Pressure: 1024.9 hPa 1013.8 hPa -
Precipitation: 0 mm    
Historical Graphs
 
 
Tabular Data for April 2, 2017
Time Temperature Dew Point Pressure Wind Wind Speed Wind Gust Humidity Rainfall Rate (Hourly) solar Conditions
00:03 8.4 °C 6.5 °C 1013.8 hPa WNW 9.7 km/h 17.7 km/h 88 % 0 mm 0 W/m2
00:08 8.4 °C 6.5 °C 1013.8 hPa WNW 9.7 km/h 17.7 km/h 88 % 0 mm 0 W/m2
00:13 8.4 °C 6.5 °C 1013.8 hPa WNW 9.7 km/h 17.7 km/h 88 % 0 mm 0 W/m2
00:18 8.3 °C 6.4 °C 1014.1 hPa WNW 11.3 km/h 17.7 km/h 88 % 0 mm 0 W/m2
00:23 8.3 °C 6.4 °C 1013.8 hPa WNW 11.3 km/h 17.7 km/h 88 % 0 mm 0 W/m2
00:28 8.2 °C 6.3 °C 1014.1 hPa WNW 11.3 km/h 20.9 km/h 88 % 0 mm 0 W/m2
00:33 8.2 °C 6.3 °C 1014.1 hPa WNW 11.3 km/h 22.5 km/h 88 % 0 mm 0 W/m2
00:38 8.2 °C 6.3 °C 1014.1 hPa WNW 9.7 km/h 22.5 km/h 88 % 0 mm 0 W/m2
00:43 8.2 °C 6.3 °C 1014.1 hPa WNW 9.7 km/h 19.3 km/h 88 % 0 mm 0 W/m2
00:48 8.1 °C 6.2 °C 1014.1 hPa WNW 9.7 km/h 19.3 km/h 88 % 0 mm 0 W/m2
00:53 8.1 °C 6.2 °C 1014.1 hPa WNW 9.7 km/h 19.3 km/h 88 % 0 mm 0 W/m2
00:58 8.1 °C 6.2 °C 1014.1 hPa WNW 8 km/h 17.7 km/h 88 % 0 mm 0 W/m2
01:03 8 °C 6.1 °C 1014.4 hPa WNW 8 km/h 16.1 km/h 88 % 0 mm 0 W/m2
01:08 7.9 °C 6.1 °C 1014.4 hPa WNW 8 km/h 16.1 km/h 88 % 0 mm 0 W/m2
01:13 7.9 °C 6.1 °C 1014.4 hPa WNW 8 km/h 14.5 km/h 88 % 0 mm 0 W/m2
01:18 7.9 °C 6.1 °C 1014.8 hPa NW 6.4 km/h 14.5 km/h 88 % 0 mm 0 W/m2
01:23 7.8 °C 5.9 °C 1014.8 hPa NW 3.2 km/h 12.9 km/h 88 % 0 mm 0 W/m2
01:28 7.8 °C 5.9 °C 1014.8 hPa NW 1.6 km/h 8 km/h 88 % 0 mm 0 W/m2
01:33 7.7 °C 6 °C 1014.8 hPa NW 1.6 km/h 8 km/h 89 % 0 mm 0 W/m2
01:38 7.6 °C 5.9 °C 1014.8 hPa NNW 1.6 km/h 8 km/h 89 % 0 mm 0 W/m2
01:44 7.5 °C 5.8 °C 1015.1 hPa NNW 1.6 km/h 8 km/h 89 % 0 mm 0 W/m2
01:49 7.5 °C 5.8 °C 1015.1 hPa NNW 3.2 km/h 9.7 km/h 89 % 0 mm 0 W/m2
01:54 7.5 °C 5.8 °C 1015.1 hPa NW 4.8 km/h 11.3 km/h 89 % 0 mm 0 W/m2
01:59 7.4 °C 5.7 °C 1015.1 hPa NW 3.2 km/h 11.3 km/h 89 % 0 mm 0 W/m2
02:04 7.3 °C 5.6 °C 1015.1 hPa NW 1.6 km/h 8 km/h 89 % 0 mm 0 W/m2
02:09 7.2 °C 5.5 °C 1015.1 hPa NW 3.2 km/h 8 km/h 89 % 0 mm 0 W/m2
02:14 7.2 °C 5.7 °C 1015.1 hPa NW 6.4 km/h 17.7 km/h 90 % 0 mm 0 W/m2
02:19 7.3 °C 5.8 °C 1015.1 hPa NW 9.7 km/h 17.7 km/h 90 % 0 mm 0 W/m2
02:24 7.3 °C 5.6 °C 1015.5 hPa NW 9.7 km/h 17.7 km/h 89 % 0 mm 0 W/m2
02:29 7.3 °C 5.6 °C 1015.5 hPa NW 8 km/h 16.1 km/h 89 % 0 mm 0 W/m2
02:34 7.3 °C 5.6 °C 1015.5 hPa WNW 8 km/h 12.9 km/h 89 % 0 mm 0 W/m2
02:39 7.2 °C 5.5 °C 1015.5 hPa WNW 6.4 km/h 12.9 km/h 89 % 0 mm 0 W/m2
02:44 7.2 °C 5.5 °C 1015.5 hPa WNW 6.4 km/h 12.9 km/h 89 % 0 mm 0 W/m2
02:49 7.2 °C 5.5 °C 1015.5 hPa WNW 6.4 km/h 12.9 km/h 89 % 0 mm 0 W/m2
02:54 7.1 °C 5.6 °C 1015.8 hPa WNW 6.4 km/h 11.3 km/h 90 % 0 mm 0 W/m2
02:59 7.1 °C 5.6 °C 1015.8 hPa WNW 4.8 km/h 12.9 km/h 90 % 0 mm 0 W/m2
03:04 7.1 °C 5.6 °C 1015.8 hPa WNW 4.8 km/h 12.9 km/h 90 % 0 mm 0 W/m2
03:09 7.1 °C 5.6 °C 1015.8 hPa WNW 4.8 km/h 12.9 km/h 90 % 0 mm 0 W/m2
03:14 7.1 °C 5.6 °C 1015.8 hPa WNW 6.4 km/h 19.3 km/h 90 % 0 mm 0 W/m2
03:19 7.2 °C 5.8 °C 1015.8 hPa WNW 8 km/h 19.3 km/h 91 % 0 mm 0 W/m2
03:25 7.3 °C 5.8 °C 1016.1 hPa WNW 8 km/h 16.1 km/h 90 % 0 mm 0 W/m2
03:30 7.4 °C 5.9 °C 1016.1 hPa WNW 6.4 km/h 12.9 km/h 90 % 0 mm 0 W/m2
03:35 7.4 °C 5.9 °C 1016.1 hPa WNW 3.2 km/h 12.9 km/h 90 % 0 mm 0 W/m2
03:40 7.5 °C 5.9 °C 1016.1 hPa West 1.6 km/h 9.7 km/h 90 % 0 mm 0 W/m2
03:45 7.6 °C 6.1 °C 1016.1 hPa West 1.6 km/h 9.7 km/h 90 % 0 mm 0 W/m2
03:50 7.6 °C 6.1 °C 1016.1 hPa West 1.6 km/h 6.4 km/h 90 % 0 mm 0 W/m2
03:55 7.5 °C 5.8 °C 1016.1 hPa West 1.6 km/h 9.7 km/h 89 % 0 mm 0 W/m2
04:00 7.4 °C 5.7 °C 1016.1 hPa WNW 3.2 km/h 9.7 km/h 89 % 0 mm 0 W/m2
04:05 7.3 °C 5.6 °C 1016.1 hPa WNW 4.8 km/h 12.9 km/h 89 % 0 mm 0 W/m2
04:10 7.2 °C 5.7 °C 1016.1 hPa WNW 8 km/h 16.1 km/h 90 % 0 mm 0 W/m2
04:14 7.1 °C 5.6 °C 1016.1 hPa WNW 9.7 km/h 16.1 km/h 90 % 0 mm 0 W/m2
04:19 7.1 °C 5.6 °C 1016.1 hPa WNW 9.7 km/h 16.1 km/h 90 % 0 mm 0 W/m2
04:24 7 °C 5.4 °C 1016.5 hPa WNW 9.7 km/h 14.5 km/h 90 % 0 mm 0 W/m2
04:29 6.9 °C 5.4 °C 1016.1 hPa WNW 8 km/h 14.5 km/h 90 % 0 mm 0 W/m2
04:34 6.8 °C 5.3 °C 1016.5 hPa WNW 6.4 km/h 12.9 km/h 90 % 0 mm 0 W/m2
04:39 6.7 °C 5.2 °C 1016.5 hPa WNW 4.8 km/h 11.3 km/h 90 % 0 mm 0 W/m2
04:44 6.6 °C 5.1 °C 1016.5 hPa WNW 6.4 km/h 12.9 km/h 90 % 0 mm 0 W/m2
04:49 6.5 °C 5.1 °C 1016.5 hPa WNW 8 km/h 16.1 km/h 91 % 0 mm 0 W/m2
04:54 6.5 °C 5.1 °C 1016.5 hPa WNW 9.7 km/h 19.3 km/h 91 % 0 mm 0 W/m2
04:59 6.4 °C 5.1 °C 1016.5 hPa WNW 8 km/h 19.3 km/h 91 % 0 mm 0 W/m2
05:04 6.3 °C 4.9 °C 1016.5 hPa WNW 6.4 km/h 12.9 km/h 91 % 0 mm 0 W/m2
05:09 6.3 °C 4.9 °C 1016.8 hPa WNW 8 km/h 14.5 km/h 91 % 0 mm 0 W/m2
05:14 6.3 °C 4.9 °C 1016.8 hPa WNW 9.7 km/h 16.1 km/h 91 % 0 mm 0 W/m2
05:19 6.3 °C 4.9 °C 1017.2 hPa WNW 9.7 km/h 16.1 km/h 91 % 0 mm 0 W/m2
05:24 6.3 °C 4.9 °C 1017.2 hPa NW 9.7 km/h 16.1 km/h 91 % 0 mm 0 W/m2
05:29 6.2 °C 4.8 °C 1017.2 hPa NW 6.4 km/h 14.5 km/h 91 % 0 mm 0 W/m2
05:34 6.2 °C 4.8 °C 1017.2 hPa NW 4.8 km/h 9.7 km/h 91 % 0 mm 0 W/m2
05:39 6.1 °C 4.7 °C 1017.5 hPa NW 4.8 km/h 12.9 km/h 91 % 0 mm 0 W/m2
05:44 6.1 °C 4.7 °C 1017.5 hPa NW 4.8 km/h 12.9 km/h 91 % 0 mm 0 W/m2
05:49 6.1 °C 4.7 °C 1017.5 hPa NW 3.2 km/h 8 km/h 91 % 0 mm 0 W/m2
05:54 6 °C 4.7 °C 1017.5 hPa WNW 3.2 km/h 9.7 km/h 91 % 0 mm 0 W/m2
05:59 5.9 °C 4.6 °C 1017.5 hPa WNW 4.8 km/h 9.7 km/h 91 % 0 mm 0 W/m2
06:04 5.9 °C 4.7 °C 1017.5 hPa WNW 8 km/h 14.5 km/h 92 % 0 mm 0 W/m2
06:09 5.9 °C 4.7 °C 1017.5 hPa WNW 9.7 km/h 17.7 km/h 92 % 0 mm 0 W/m2
06:14 5.9 °C 4.7 °C 1017.8 hPa WNW 9.7 km/h 17.7 km/h 92 % 0 mm 0 W/m2
06:19 5.9 °C 4.7 °C 1017.8 hPa WNW 9.7 km/h 17.7 km/h 92 % 0 mm 0 W/m2
06:24 5.9 °C 4.7 °C 1017.8 hPa WNW 8 km/h 16.1 km/h 92 % 0 mm 0 W/m2
06:29 5.9 °C 4.7 °C 1017.8 hPa WNW 8 km/h 16.1 km/h 92 % 0 mm 0 W/m2
06:34 5.9 °C 4.7 °C 1018.2 hPa WNW 6.4 km/h 11.3 km/h 92 % 0 mm 0 W/m2
06:39 6 °C 4.8 °C 1018.2 hPa WNW 6.4 km/h 11.3 km/h 92 % 0 mm 7 W/m2
06:44 6.1 °C 4.9 °C 1018.2 hPa WNW 6.4 km/h 12.9 km/h 92 % 0 mm 7 W/m2
06:49 6.1 °C 4.9 °C 1018.5 hPa WNW 6.4 km/h 12.9 km/h 92 % 0 mm 16 W/m2
06:54 6.1 °C 4.9 °C 1018.5 hPa WNW 6.4 km/h 12.9 km/h 92 % 0 mm 12 W/m2
06:59 6.2 °C 5 °C 1018.5 hPa WNW 6.4 km/h 12.9 km/h 92 % 0 mm 14 W/m2
07:04 6.2 °C 5 °C 1018.5 hPa WNW 8 km/h 16.1 km/h 92 % 0 mm 21 W/m2
07:09 6.3 °C 5.1 °C 1018.8 hPa WNW 8 km/h 16.1 km/h 92 % 0 mm 19 W/m2
07:14 6.4 °C 5.2 °C 1018.8 hPa WNW 8 km/h 16.1 km/h 92 % 0 mm 21 W/m2
07:20 6.6 °C 5.4 °C 1018.8 hPa WNW 8 km/h 16.1 km/h 92 % 0 mm 26 W/m2
07:25 6.7 °C 5.3 °C 1019.2 hPa WNW 8 km/h 14.5 km/h 91 % 0 mm 28 W/m2
07:30 6.8 °C 5.4 °C 1019.2 hPa NW 8 km/h 16.1 km/h 91 % 0 mm 44 W/m2
07:35 6.8 °C 5.4 °C 1019.2 hPa NW 8 km/h 16.1 km/h 91 % 0 mm 60 W/m2
07:40 7 °C 5.4 °C 1019.2 hPa NW 9.7 km/h 17.7 km/h 90 % 0 mm 49 W/m2
07:45 7.1 °C 5.6 °C 1019.5 hPa WNW 11.3 km/h 17.7 km/h 90 % 0 mm 51 W/m2
07:50 7.2 °C 5.7 °C 1019.5 hPa WNW 9.7 km/h 19.3 km/h 90 % 0 mm 46 W/m2
07:55 7.2 °C 5.5 °C 1019.5 hPa NW 9.7 km/h 19.3 km/h 89 % 0 mm 47 W/m2
08:00 7.3 °C 5.6 °C 1019.9 hPa NW 9.7 km/h 17.7 km/h 89 % 0 mm 86 W/m2
08:05 7.4 °C 5.7 °C 1019.9 hPa NW 9.7 km/h 17.7 km/h 89 % 0 mm 113 W/m2
08:10 7.5 °C 5.7 °C 1019.9 hPa NW 9.7 km/h 16.1 km/h 88 % 0 mm 98 W/m2
08:15 7.7 °C 5.8 °C 1019.9 hPa NW 8 km/h 16.1 km/h 88 % 0 mm 107 W/m2
08:20 7.8 °C 5.9 °C 1020.2 hPa NW 6.4 km/h 14.5 km/h 88 % 0 mm 153 W/m2
08:25 7.9 °C 6.1 °C 1020.2 hPa NW 6.4 km/h 12.9 km/h 88 % 0 mm 135 W/m2
08:30 8.1 °C 6.1 °C 1020.2 hPa WNW 8 km/h 16.1 km/h 87 % 0 mm 139 W/m2
08:35 8.2 °C 6 °C 1020.2 hPa WNW 8 km/h 16.1 km/h 86 % 0 mm 158 W/m2
08:40 8.3 °C 6.1 °C 1020.2 hPa WNW 8 km/h 12.9 km/h 86 % 0 mm 149 W/m2
08:45 8.4 °C 6.2 °C 1020.5 hPa WNW 8 km/h 16.1 km/h 86 % 0 mm 199 W/m2
08:50 8.5 °C 6.3 °C 1020.5 hPa WNW 9.7 km/h 19.3 km/h 86 % 0 mm 199 W/m2
08:55 8.6 °C 6.2 °C 1020.5 hPa WNW 9.7 km/h 19.3 km/h 85 % 0 mm 156 W/m2
09:00 8.7 °C 6.2 °C 1020.5 hPa WNW 9.7 km/h 17.7 km/h 84 % 0 mm 179 W/m2
09:05 8.8 °C 6.2 °C 1020.9 hPa WNW 8 km/h 16.1 km/h 84 % 0 mm 220 W/m2
09:10 9 °C 6.4 °C 1020.9 hPa NW 6.4 km/h 16.1 km/h 84 % 0 mm 199 W/m2
09:16 9.1 °C 6.4 °C 1020.9 hPa NW 8 km/h 17.7 km/h 83 % 0 mm 190 W/m2
09:21 9.2 °C 6.3 °C 1020.9 hPa NW 8 km/h 17.7 km/h 82 % 0 mm 188 W/m2
09:26 9.3 °C 6.4 °C 1020.9 hPa NW 8 km/h 14.5 km/h 82 % 0 mm 192 W/m2
09:31 9.2 °C 6.3 °C 1021.2 hPa NW 9.7 km/h 16.1 km/h 82 % 0 mm 158 W/m2
09:36 9.2 °C 6.3 °C 1021.2 hPa NNW 8 km/h 16.1 km/h 82 % 0 mm 135 W/m2
09:41 9.2 °C 6.3 °C 1021.2 hPa NNW 4.8 km/h 12.9 km/h 82 % 0 mm 144 W/m2
09:46 9.3 °C 6.4 °C 1021.2 hPa NNW 4.8 km/h 11.3 km/h 82 % 0 mm 135 W/m2
09:51 9.3 °C 6.2 °C 1021.2 hPa NW 4.8 km/h 11.3 km/h 81 % 0 mm 167 W/m2
09:56 9.4 °C 6.5 °C 1021.6 hPa NNW 3.2 km/h 11.3 km/h 82 % 0 mm 248 W/m2
10:01 9.5 °C 6.6 °C 1021.6 hPa NNW 3.2 km/h 12.9 km/h 82 % 0 mm 288 W/m2
10:06 9.7 °C 6.8 °C 1021.6 hPa NW 6.4 km/h 14.5 km/h 82 % 0 mm 301 W/m2
10:11 9.9 °C 6.8 °C 1021.6 hPa NNW 6.4 km/h 14.5 km/h 81 % 0 mm 302 W/m2
10:16 10.1 °C 7 °C 1021.6 hPa NNW 4.8 km/h 11.3 km/h 81 % 0 mm 309 W/m2
10:21 10.2 °C 6.9 °C 1021.6 hPa NNW 6.4 km/h 16.1 km/h 80 % 0 mm 320 W/m2
10:26 10.3 °C 7.2 °C 1021.6 hPa NNW 4.8 km/h 16.1 km/h 81 % 0 mm 299 W/m2
10:31 10.5 °C 7.2 °C 1021.6 hPa NNW 4.8 km/h 12.9 km/h 80 % 0 mm 288 W/m2
10:36 10.6 °C 7.3 °C 1021.9 hPa NNW 3.2 km/h 11.3 km/h 80 % 0 mm 373 W/m2
10:41 10.7 °C 7.2 °C 1021.6 hPa NNW 1.6 km/h 8 km/h 79 % 0 mm 580 W/m2
10:46 11 °C 7.3 °C 1021.6 hPa NW 1.6 km/h 6.4 km/h 78 % 0 mm 332 W/m2
10:51 11.2 °C 7.3 °C 1021.6 hPa NNW 1.6 km/h 8 km/h 77 % 0 mm 362 W/m2
10:56 11.3 °C 7.4 °C 1021.9 hPa North 3.2 km/h 14.5 km/h 77 % 0 mm 341 W/m2
11:01 11.4 °C 7.3 °C 1021.9 hPa NNE 3.2 km/h 14.5 km/h 76 % 0 mm 216 W/m2
11:06 11.3 °C 7 °C 1021.9 hPa NE 3.2 km/h 12.9 km/h 75 % 0 mm 246 W/m2
11:11 11.2 °C 7.1 °C 1021.9 hPa NE 3.2 km/h 12.9 km/h 76 % 0 mm 288 W/m2
11:16 11.2 °C 6.9 °C 1021.9 hPa East 1.6 km/h 8 km/h 75 % 0 mm 290 W/m2
11:21 11.3 °C 7 °C 1022.2 hPa SE 1.6 km/h 6.4 km/h 75 % 0 mm 257 W/m2
11:26 11.4 °C 7.1 °C 1022.2 hPa North 1.6 km/h 9.7 km/h 75 % 0 mm 251 W/m2
11:31 11.4 °C 7.5 °C 1022.2 hPa North 3.2 km/h 9.7 km/h 77 % 0 mm 221 W/m2
11:36 11.5 °C 7.4 °C 1022.2 hPa NNW 1.6 km/h 9.7 km/h 76 % 0 mm 179 W/m2
11:41 11.4 °C 7.3 °C 1022.2 hPa North 1.6 km/h 9.7 km/h 76 % 0 mm 199 W/m2
11:46 11.4 °C 7.3 °C 1022.2 hPa NNE 1.6 km/h 6.4 km/h 76 % 0 mm 243 W/m2
11:51 11.4 °C 7.3 °C 1022.6 hPa Calm   6.4 km/h 76 % 0 mm 264 W/m2
11:56 11.4 °C 7.1 °C 1022.2 hPa NE 1.6 km/h 8 km/h 75 % 0 mm 364 W/m2
12:01 11.4 °C 7.1 °C 1022.2 hPa ENE 1.6 km/h 8 km/h 75 % 0 mm 455 W/m2
12:06 11.6 °C 7.3 °C 1022.2 hPa ENE 1.6 km/h 8 km/h 75 % 0 mm 480 W/m2
12:12 11.7 °C 7.2 °C 1022.2 hPa ENE 1.6 km/h 8 km/h 74 % 0 mm 394 W/m2
12:17 11.8 °C 7.1 °C 1022.2 hPa ENE 1.6 km/h 6.4 km/h 73 % 0 mm 410 W/m2
12:22 12.1 °C 7.6 °C 1022.2 hPa Calm   6.4 km/h 74 % 0 mm 401 W/m2
12:27 12.4 °C 7.7 °C 1022.2 hPa NW 1.6 km/h 6.4 km/h 73 % 0 mm 339 W/m2
12:32 12.5 °C 7.6 °C 1022.2 hPa NW 1.6 km/h 6.4 km/h 72 % 0 mm 271 W/m2
12:37 12.6 °C 7.3 °C 1022.6 hPa Calm   4.8 km/h 70 % 0 mm 237 W/m2
12:42 12.6 °C 7.3 °C 1022.6 hPa North 1.6 km/h 6.4 km/h 70 % 0 mm 258 W/m2
12:47 12.6 °C 7.1 °C 1022.6 hPa NNW 1.6 km/h 6.4 km/h 69 % 0 mm 322 W/m2
12:52 12.7 °C 7.4 °C 1022.6 hPa Calm   3.2 km/h 70 % 0 mm 360 W/m2
12:57 12.9 °C 7.6 °C 1022.2 hPa NNW 1.6 km/h 8 km/h 70 % 0 mm 541 W/m2
13:02 13.2 °C 7.4 °C 1022.2 hPa NNW 1.6 km/h 8 km/h 68 % 0 mm 1062 W/m2
13:07 13.4 °C 7.4 °C 1022.6 hPa West 3.2 km/h 9.7 km/h 67 % 0 mm 489 W/m2
13:12 13.4 °C 7.4 °C 1022.6 hPa West 3.2 km/h 9.7 km/h 67 % 0 mm 789 W/m2
13:17 13.6 °C 7.4 °C 1022.6 hPa West 1.6 km/h 6.4 km/h 66 % 0 mm 362 W/m2
13:22 13.5 °C 7.3 °C 1022.6 hPa Calm   3.2 km/h 66 % 0 mm 362 W/m2
13:27 13.6 °C 7.2 °C 1022.6 hPa WNW 1.6 km/h 11.3 km/h 65 % 0 mm 279 W/m2
13:32 13.6 °C 7.2 °C 1022.6 hPa NW 3.2 km/h 11.3 km/h 65 % 0 mm 313 W/m2
13:37 13.6 °C 7.2 °C 1022.6 hPa NNW 1.6 km/h 6.4 km/h 65 % 0 mm 311 W/m2
13:42 13.7 °C 7.4 °C 1022.6 hPa NW 1.6 km/h 6.4 km/h 66 % 0 mm 490 W/m2
13:47 13.9 °C 7.9 °C 1022.2 hPa North 3.2 km/h 11.3 km/h 67 % 0 mm 979 W/m2
13:52 14.1 °C 7.6 °C 1022.2 hPa NNE 4.8 km/h 12.9 km/h 65 % 0 mm 606 W/m2
13:57 14.1 °C 7.6 °C 1022.6 hPa NNE 4.8 km/h 12.9 km/h 65 % 0 mm 262 W/m2
14:02 14 °C 7.5 °C 1022.6 hPa NNW 4.8 km/h 11.3 km/h 65 % 0 mm 264 W/m2
14:07 14 °C 7.3 °C 1022.6 hPa NNW 4.8 km/h 11.3 km/h 64 % 0 mm 271 W/m2
14:12 13.8 °C 7.1 °C 1022.6 hPa NNW 4.8 km/h 11.3 km/h 64 % 0 mm 292 W/m2
14:17 13.7 °C 7 °C 1022.6 hPa North 3.2 km/h 11.3 km/h 64 % 0 mm 294 W/m2
14:22 13.7 °C 7 °C 1022.2 hPa North 1.6 km/h 6.4 km/h 64 % 0 mm 350 W/m2
14:27 13.8 °C 7.1 °C 1022.6 hPa North 3.2 km/h 9.7 km/h 64 % 0 mm 886 W/m2
14:32 13.8 °C 6.9 °C 1022.6 hPa NE 3.2 km/h 9.7 km/h 63 % 0 mm 255 W/m2
14:37 13.9 °C 6.9 °C 1022.6 hPa East 3.2 km/h 9.7 km/h 63 % 0 mm 318 W/m2
14:42 13.9 °C 6.5 °C 1022.6 hPa East 3.2 km/h 9.7 km/h 61 % 0 mm 246 W/m2
14:48 13.7 °C 6.3 °C 1022.6 hPa ENE 3.2 km/h 8 km/h 61 % 0 mm 234 W/m2
14:52 13.6 °C 6.4 °C 1022.6 hPa ENE 1.6 km/h 8 km/h 62 % 0 mm 279 W/m2
14:58 13.6 °C 6 °C 1022.6 hPa East 1.6 km/h 6.4 km/h 60 % 0 mm 250 W/m2
15:03 13.6 °C 6.2 °C 1022.6 hPa SE 1.6 km/h 8 km/h 61 % 0 mm 278 W/m2
15:08 13.7 °C 5.8 °C 1022.6 hPa SSE 1.6 km/h 8 km/h 59 % 0 mm 257 W/m2
15:13 13.7 °C 6.1 °C 1022.6 hPa SSW 3.2 km/h 8 km/h 60 % 0 mm 276 W/m2
15:18 13.7 °C 6.1 °C 1022.6 hPa SSW 3.2 km/h 8 km/h 60 % 0 mm 722 W/m2
15:23 13.9 °C 6 °C 1022.6 hPa South 3.2 km/h 11.3 km/h 59 % 0 mm 582 W/m2
15:28 14.1 °C 6.2 °C 1022.6 hPa SSE 4.8 km/h 11.3 km/h 59 % 0 mm 236 W/m2
15:33 14.1 °C 6.2 °C 1022.6 hPa South 3.2 km/h 11.3 km/h 59 % 0 mm 267 W/m2
15:38 14.1 °C 5.7 °C 1022.6 hPa SSW 1.6 km/h 6.4 km/h 57 % 0 mm 304 W/m2
15:43 14.2 °C 6.1 °C 1022.6 hPa SW 1.6 km/h 8 km/h 58 % 0 mm 765 W/m2
15:48 14.4 °C 6 °C 1022.6 hPa West 3.2 km/h 9.7 km/h 57 % 0 mm 239 W/m2
15:53 14.5 °C 6.3 °C 1022.6 hPa WNW 6.4 km/h 9.7 km/h 58 % 0 mm 656 W/m2
15:58 14.6 °C 6.2 °C 1022.6 hPa West 6.4 km/h 9.7 km/h 57 % 0 mm 172 W/m2
16:03 14.7 °C 6 °C 1022.6 hPa West 3.2 km/h 9.7 km/h 56 % 0 mm 589 W/m2
16:08 14.9 °C 5.9 °C 1022.6 hPa West 1.6 km/h 9.7 km/h 55 % 0 mm 176 W/m2
16:13 14.9 °C 5.9 °C 1022.6 hPa West 1.6 km/h 9.7 km/h 55 % 0 mm 200 W/m2
16:18 14.8 °C 5.8 °C 1022.9 hPa West 1.6 km/h 9.7 km/h 55 % 0 mm 209 W/m2
16:23 14.7 °C 5.5 °C 1022.6 hPa West 3.2 km/h 9.7 km/h 54 % 0 mm 243 W/m2
16:28 14.7 °C 6 °C 1022.6 hPa West 1.6 km/h 8 km/h 56 % 0 mm 211 W/m2
16:33 14.6 °C 5.7 °C 1022.6 hPa West 1.6 km/h 4.8 km/h 55 % 0 mm 209 W/m2
16:38 14.5 °C 5.8 °C 1022.6 hPa West 3.2 km/h 8 km/h 56 % 0 mm 229 W/m2
16:43 14.5 °C 5.8 °C 1022.6 hPa WNW 1.6 km/h 8 km/h 56 % 0 mm 478 W/m2
16:48 14.7 °C 5.7 °C 1022.6 hPa WNW 1.6 km/h 8 km/h 55 % 0 mm 192 W/m2
16:53 14.7 °C 5.5 °C 1022.6 hPa WNW 3.2 km/h 8 km/h 54 % 0 mm 178 W/m2
16:58 14.7 °C 5.5 °C 1022.6 hPa WNW 3.2 km/h 8 km/h 54 % 0 mm 165 W/m2
17:03 14.6 °C 5.4 °C 1022.6 hPa WNW 1.6 km/h 8 km/h 54 % 0 mm 167 W/m2
17:08 14.5 °C 5.3 °C 1022.6 hPa WNW 1.6 km/h 6.4 km/h 54 % 0 mm 160 W/m2
17:14 14.3 °C 5.4 °C 1022.6 hPa WNW 1.6 km/h 8 km/h 55 % 0 mm 355 W/m2
17:19 14.6 °C 5.7 °C 1022.6 hPa WNW 1.6 km/h 8 km/h 55 % 0 mm 415 W/m2
17:24 14.8 °C 5.3 °C 1022.6 hPa WNW 1.6 km/h 8 km/h 53 % 0 mm 369 W/m2
17:29 15 °C 5.2 °C 1022.6 hPa WNW 1.6 km/h 6.4 km/h 52 % 0 mm 338 W/m2
17:34 15.1 °C 5.6 °C 1022.6 hPa WNW 1.6 km/h 6.4 km/h 53 % 0 mm 237 W/m2
17:39 15 °C 5.5 °C 1022.9 hPa WNW 3.2 km/h 8 km/h 53 % 0 mm 294 W/m2
17:44 15.1 °C 5.6 °C 1022.9 hPa West 3.2 km/h 8 km/h 53 % 0 mm 281 W/m2
17:49 15.3 °C 5.2 °C 1022.9 hPa West 1.6 km/h 8 km/h 51 % 0 mm 206 W/m2
17:54 15.3 °C 5.2 °C 1022.9 hPa West 1.6 km/h 4.8 km/h 51 % 0 mm 248 W/m2
17:59 15.2 °C 5.1 °C 1022.9 hPa West 1.6 km/h 6.4 km/h 51 % 0 mm 179 W/m2
18:04 15.2 °C 5.1 °C 1022.9 hPa West 1.6 km/h 6.4 km/h 51 % 0 mm 202 W/m2
18:09 15 °C 5.2 °C 1022.9 hPa West 1.6 km/h 6.4 km/h 52 % 0 mm 63 W/m2
18:14 14.9 °C 5.4 °C 1022.9 hPa Calm   3.2 km/h 53 % 0 mm 176 W/m2
18:19 14.7 °C 5.5 °C 1022.9 hPa Calm   3.2 km/h 54 % 0 mm 188 W/m2
18:24 14.7 °C 5.7 °C 1022.9 hPa Calm   3.2 km/h 55 % 0 mm 195 W/m2
18:29 14.6 °C 5.9 °C 1022.9 hPa Calm   3.2 km/h 56 % 0 mm 76 W/m2
18:34 14.4 °C 5.7 °C 1023.2 hPa SE 1.6 km/h 9.7 km/h 56 % 0 mm 67 W/m2
18:39 14.2 °C 6.1 °C 1023.2 hPa ESE 4.8 km/h 9.7 km/h 58 % 0 mm 70 W/m2
18:44 14 °C 5.8 °C 1023.2 hPa ESE 3.2 km/h 8 km/h 58 % 0 mm 84 W/m2
18:49 13.8 °C 5.9 °C 1023.2 hPa East 3.2 km/h 8 km/h 59 % 0 mm 93 W/m2
18:54 13.7 °C 6.1 °C 1023.2 hPa East 1.6 km/h 9.7 km/h 60 % 0 mm 84 W/m2
18:59 13.6 °C 6.2 °C 1023.2 hPa ESE 4.8 km/h 12.9 km/h 61 % 0 mm 42 W/m2
19:04 13.5 °C 6.3 °C 1023.2 hPa SE 6.4 km/h 12.9 km/h 62 % 0 mm 33 W/m2
19:09 13.4 °C 6.3 °C 1023.2 hPa SE 4.8 km/h 9.7 km/h 62 % 0 mm 28 W/m2
19:14 13.3 °C 6.2 °C 1023.2 hPa SE 3.2 km/h 9.7 km/h 62 % 0 mm 21 W/m2
19:19 13.2 °C 6.3 °C 1023.2 hPa SE 3.2 km/h 9.7 km/h 63 % 0 mm 14 W/m2
19:24 13.1 °C 6.2 °C 1023.2 hPa SE 3.2 km/h 8 km/h 63 % 0 mm 9 W/m2
19:29 12.9 °C 6.2 °C 1023.2 hPa SE 1.6 km/h 8 km/h 64 % 0 mm 5 W/m2
19:34 12.8 °C 6.4 °C 1023.2 hPa Calm   3.2 km/h 65 % 0 mm 5 W/m2
19:40 12.7 °C 6.3 °C 1023.6 hPa Calm   3.2 km/h 65 % 0 mm 0 W/m2
19:45 12.6 °C 6.4 °C 1023.6 hPa Calm   1.6 km/h 66 % 0 mm 0 W/m2
19:49 12.3 °C 6.1 °C 1023.6 hPa Calm   1.6 km/h 66 % 0 mm 0 W/m2
19:54 12.1 °C 5.9 °C 1023.6 hPa Calm     66 % 0 mm 0 W/m2
20:00 11.8 °C 5.9 °C 1023.6 hPa Calm     67 % 0 mm 0 W/m2
20:04 11.6 °C 5.9 °C 1023.6 hPa Calm     68 % 0 mm 0 W/m2
20:10 11.4 °C 5.9 °C 1023.9 hPa Calm   1.6 km/h 69 % 0 mm 0 W/m2
20:15 11.2 °C 5.9 °C 1023.9 hPa Calm   1.6 km/h 70 % 0 mm 0 W/m2
20:20 11.1 °C 5.8 °C 1023.9 hPa Calm   1.6 km/h 70 % 0 mm 0 W/m2
20:25 10.9 °C 5.8 °C 1023.9 hPa Calm   8 km/h 71 % 0 mm 0 W/m2
20:30 10.8 °C 5.9 °C 1023.9 hPa Calm   8 km/h 72 % 0 mm 0 W/m2
20:35 10.8 °C 6.2 °C 1023.9 hPa Calm   6.4 km/h 73 % 0 mm 0 W/m2
20:40 10.6 °C 5.9 °C 1024.3 hPa SW 1.6 km/h 3.2 km/h 73 % 0 mm 0 W/m2
20:45 10.6 °C 6.2 °C 1024.3 hPa SW 1.6 km/h 3.2 km/h 74 % 0 mm 0 W/m2
20:50 10.6 °C 6.3 °C 1024.3 hPa Calm   3.2 km/h 75 % 0 mm 0 W/m2
20:55 10.6 °C 6.3 °C 1024.3 hPa Calm   4.8 km/h 75 % 0 mm 0 W/m2
21:00 10.7 °C 6.7 °C 1024.3 hPa Calm   4.8 km/h 76 % 0 mm 0 W/m2
21:05 10.7 °C 6.7 °C 1024.3 hPa Calm   1.6 km/h 76 % 0 mm 0 W/m2
21:10 10.8 °C 6.7 °C 1024.3 hPa Calm   1.6 km/h 76 % 0 mm 0 W/m2
21:15 10.7 °C 6.7 °C 1024.3 hPa Calm   1.6 km/h 76 % 0 mm 0 W/m2
21:20 10.6 °C 6.6 °C 1024.3 hPa Calm     76 % 0 mm 0 W/m2
21:25 10.5 °C 6.6 °C 1024.6 hPa Calm     77 % 0 mm 0 W/m2
21:30 10.5 °C 6.6 °C 1024.6 hPa Calm   4.8 km/h 77 % 0 mm 0 W/m2
21:35 10.4 °C 6.6 °C 1024.6 hPa Calm   4.8 km/h 77 % 0 mm 0 W/m2
21:40 10.3 °C 6.4 °C 1024.6 hPa Calm   3.2 km/h 77 % 0 mm 0 W/m2
21:45 10.2 °C 6.3 °C 1024.6 hPa Calm   1.6 km/h 77 % 0 mm 0 W/m2
21:50 10 °C 6.3 °C 1024.6 hPa Calm   1.6 km/h 78 % 0 mm 0 W/m2
21:55 9.8 °C 6.2 °C 1024.6 hPa Calm     78 % 0 mm 0 W/m2
22:00 9.7 °C 6.1 °C 1024.6 hPa Calm     78 % 0 mm 0 W/m2
22:05 9.4 °C 5.8 °C 1024.6 hPa Calm   3.2 km/h 78 % 0 mm 0 W/m2
22:10 9.2 °C 5.6 °C 1024.6 hPa West 1.6 km/h 6.4 km/h 78 % 0 mm 0 W/m2
22:15 9.1 °C 5.4 °C 1024.6 hPa West 1.6 km/h 6.4 km/h 78 % 0 mm 0 W/m2
22:20 8.8 °C 5.2 °C 1024.6 hPa Calm   3.2 km/h 78 % 0 mm 0 W/m2
22:25 8.6 °C 5.2 °C 1024.6 hPa Calm     79 % 0 mm 0 W/m2
22:30 8.4 °C 5.2 °C 1024.9 hPa Calm     80 % 0 mm 0 W/m2
22:35 8.3 °C 5.2 °C 1024.6 hPa Calm     81 % 0 mm 0 W/m2
22:40 8.1 °C 5.1 °C 1024.6 hPa Calm     81 % 0 mm 0 W/m2
22:45 7.9 °C 4.8 °C 1024.6 hPa Calm     81 % 0 mm 0 W/m2
22:50 7.7 °C 4.8 °C 1024.6 hPa Calm     82 % 0 mm 0 W/m2
22:55 7.6 °C 4.7 °C 1024.6 hPa Calm     82 % 0 mm 0 W/m2
23:01 7.3 °C 4.6 °C 1024.6 hPa Calm     83 % 0 mm 0 W/m2
23:06 7.2 °C 4.7 °C 1024.6 hPa Calm     84 % 0 mm 0 W/m2
23:11 7.1 °C 4.6 °C 1024.6 hPa Calm     84 % 0 mm 0 W/m2
23:16 7.1 °C 4.7 °C 1024.9 hPa Calm     85 % 0 mm 0 W/m2
23:17 7.1 °C 4.7 °C 1024.9 hPa Calm     85 % 0 mm 0 W/m2
23:22 6.9 °C 4.4 °C 1024.9 hPa Calm     84 % 0 mm 0 W/m2
23:27 6.8 °C 4.4 °C 1024.9 hPa Calm     85 % 0 mm 0 W/m2
23:32 6.6 °C 4.4 °C 1024.9 hPa Calm     86 % 0 mm 0 W/m2
23:33 6.6 °C 4.4 °C 1024.6 hPa Calm     86 % 0 mm 0 W/m2
23:38 6.5 °C 4.2 °C 1024.9 hPa Calm     85 % 0 mm 0 W/m2
23:43 6.3 °C 3.9 °C 1024.9 hPa Calm     85 % 0 mm 0 W/m2
23:48 6.2 °C 4.1 °C 1024.9 hPa Calm   1.6 km/h 86 % 0 mm 0 W/m2
23:53 6.1 °C 4.1 °C 1024.9 hPa Calm   3.2 km/h 87 % 0 mm 0 W/m2
23:58 5.9 °C 3.9 °C 1024.9 hPa Calm   3.2 km/h 87 % 0 mm 0 W/m2
Delerius-Weather
Compliments of Weather Underground - 2.25 mb

Data updates at regular intervals.